Terminal Aerodrome Forecast
Issued by NWS

Home | Current Version | Previous Version | Text Only | Print | Product List | Glossary On
Versions: 1 2 3 4 5 6 7 8 9 10 11 12 13 14 15 16 17 18 19 20 21 22
000
FTUS43 KLSX 240700 AAA
TAFUIN
TAF AMD
KUIN 240710Z 2407/2506 13007KT P6SM BKN060
      TEMPO 2408/2410 6SM -SHRA
     FM241200 14012KT P6SM VCSH BKN040
     FM241800 17015G25KT P6SM BKN025
     FM250000 15014KT 6SM -SHRA VCTS BKN030CB=

USA.gov is the U.S. government's official web portal to all federal, state and local government web resources and services.